createdAt,value
2019-05-09T00:01:23.737Z,2.70
2019-05-09T00:03:54.318Z,2.72
2019-05-09T00:06:23.965Z,2.63
2019-05-09T00:08:53.347Z,2.80
2019-05-09T00:11:24.423Z,2.15
2019-05-09T00:13:53.841Z,2.52
2019-05-09T00:16:23.635Z,2.17
2019-05-09T00:18:54.066Z,2.58
2019-05-09T00:21:28.707Z,2.20
2019-05-09T00:23:57.588Z,2.60
2019-05-09T00:26:26.466Z,2.33
2019-05-09T00:28:56.905Z,2.67
2019-05-09T00:31:36.357Z,2.40
2019-05-09T00:34:25.125Z,2.22
2019-05-09T00:36:54.086Z,2.60
2019-05-09T00:39:23.648Z,2.50
2019-05-09T00:41:53.908Z,2.35
2019-05-09T00:44:30.661Z,2.85
2019-05-09T00:47:10.055Z,3.02
2019-05-09T00:49:39.353Z,2.70
2019-05-09T00:52:08.239Z,2.92
2019-05-09T00:54:37.151Z,2.80
2019-05-09T00:57:06.074Z,2.87
2019-05-09T00:59:34.914Z,3.22
2019-05-09T01:02:04.105Z,3.08
2019-05-09T01:04:33.444Z,3.12
2019-05-09T01:07:03.412Z,3.50
2019-05-09T01:09:33.383Z,3.25
2019-05-09T01:12:04.135Z,3.70
2019-05-09T01:14:33.971Z,3.53
2019-05-09T01:17:04.213Z,3.75
2019-05-09T01:19:33.916Z,3.37
2019-05-09T01:22:03.711Z,4.08
2019-05-09T01:24:33.830Z,3.50
2019-05-09T01:27:03.577Z,4.10
2019-05-09T01:29:33.754Z,3.90
2019-05-09T01:32:05.067Z,4.03
2019-05-09T01:34:35.652Z,3.87
2019-05-09T01:37:05.355Z,4.17
2019-05-09T01:39:35.546Z,3.85
2019-05-09T01:42:04.495Z,4.15
2019-05-09T01:44:33.636Z,4.25
2019-05-09T01:47:03.698Z,4.22
2019-05-09T01:49:34.124Z,4.20
2019-05-09T01:52:03.668Z,3.87
2019-05-09T01:54:34.438Z,4.08
2019-05-09T01:57:03.600Z,4.53
2019-05-09T01:59:33.973Z,4.95
2019-05-09T02:02:08.176Z,4.22
2019-05-09T02:04:34.245Z,5.08
2019-05-09T02:07:04.081Z,4.60
2019-05-09T02:09:34.292Z,4.95
2019-05-09T02:12:03.980Z,4.05
2019-05-09T02:14:34.885Z,4.72
2019-05-09T02:17:17.449Z,4.35
2019-05-09T02:19:47.602Z,4.65
2019-05-09T02:22:35.490Z,4.67
2019-05-09T02:25:06.679Z,4.78
2019-05-09T02:27:35.793Z,4.83
2019-05-09T02:30:07.052Z,4.87
2019-05-09T02:32:36.848Z,4.60
2019-05-09T02:35:10.074Z,4.33
2019-05-09T02:37:39.291Z,5.35
2019-05-09T02:40:09.685Z,4.87
2019-05-09T02:42:39.932Z,4.95
2019-05-09T02:45:10.333Z,4.60
2019-05-09T02:47:39.329Z,5.00
2019-05-09T02:50:09.772Z,5.42
2019-05-09T02:52:39.890Z,5.03
2019-05-09T02:55:10.515Z,4.58
2019-05-09T02:57:39.761Z,4.80
2019-05-09T03:00:10.461Z,5.62
2019-05-09T03:02:59.653Z,5.30
2019-05-09T03:05:29.590Z,4.97
2019-05-09T03:07:58.612Z,5.17
2019-05-09T03:10:29.227Z,4.97
2019-05-09T03:12:59.350Z,4.95
2019-05-09T03:15:29.338Z,6.30
2019-05-09T03:17:59.904Z,5.65
2019-05-09T03:20:49.421Z,5.77
2019-05-09T03:23:19.262Z,5.47
2019-05-09T03:25:48.631Z,6.40
2019-05-09T03:28:31.388Z,6.33
2019-05-09T03:31:01.864Z,6.60
2019-05-09T03:33:35.239Z,6.53
2019-05-09T03:36:01.338Z,6.62
2019-05-09T03:38:30.214Z,7.28
2019-05-09T03:40:59.100Z,6.97
2019-05-09T03:43:27.995Z,6.37
2019-05-09T03:46:01.388Z,7.05
2019-05-09T03:48:34.735Z,6.78
2019-05-09T03:51:03.670Z,7.62
2019-05-09T03:53:32.562Z,8.23
2019-05-09T03:56:03.175Z,8.03
2019-05-09T03:58:32.064Z,8.50
2019-05-09T04:01:00.946Z,8.90
2019-05-09T04:03:29.867Z,7.45
2019-05-09T04:06:02.882Z,8.20
2019-05-09T04:08:29.370Z,7.90
2019-05-09T04:10:58.819Z,8.35
2019-05-09T04:13:29.329Z,8.43
2019-05-09T04:15:58.396Z,9.30
2019-05-09T04:18:27.780Z,9.88
2019-05-09T04:20:57.333Z,9.68
2019-05-09T04:23:27.530Z,9.90
2019-05-09T04:26:04.261Z,10.10
2019-05-09T04:28:33.165Z,9.55
2019-05-09T04:31:02.044Z,11.28
2019-05-09T04:33:30.852Z,9.90
2019-05-09T04:35:59.754Z,10.03
2019-05-09T04:38:28.687Z,11.03
2019-05-09T04:40:58.370Z,11.38
2019-05-09T04:43:35.446Z,11.30
2019-05-09T04:45:59.544Z,10.43
2019-05-09T04:48:32.796Z,10.78
2019-05-09T04:51:03.451Z,10.53
2019-05-09T04:53:33.381Z,11.63
2019-05-09T04:56:17.572Z,10.90
2019-05-09T04:58:48.203Z,11.53
2019-05-09T05:01:35.375Z,11.23
2019-05-09T05:04:04.291Z,9.75
2019-05-09T05:06:33.172Z,11.73
2019-05-09T05:09:02.098Z,10.98
2019-05-09T05:11:31.075Z,10.72
2019-05-09T05:13:59.921Z,9.90
2019-05-09T05:16:28.827Z,10.82
2019-05-09T05:18:58.394Z,11.12
2019-05-09T05:21:28.425Z,10.55
2019-05-09T05:23:59.226Z,10.35
2019-05-09T05:26:29.019Z,10.32
2019-05-09T05:28:58.180Z,10.45
2019-05-09T05:31:28.544Z,9.90
2019-05-09T05:34:08.149Z,10.15
2019-05-09T05:36:38.244Z,8.93
2019-05-09T05:39:08.365Z,8.90
2019-05-09T05:41:37.906Z,9.93
2019-05-09T05:44:08.500Z,10.43
2019-05-09T05:46:50.726Z,10.27
2019-05-09T05:49:18.737Z,9.13
2019-05-09T05:51:50.399Z,9.90
2019-05-09T05:56:47.947Z,9.78
2019-05-09T05:59:17.953Z,9.10
2019-05-09T06:01:47.734Z,10.15
2019-05-09T06:04:18.586Z,9.48
2019-05-09T06:06:48.097Z,9.45
2019-05-09T06:09:18.938Z,9.88
2019-05-09T06:11:48.632Z,9.05
2019-05-09T06:14:18.608Z,9.65
2019-05-09T06:16:48.622Z,9.28
2019-05-09T06:19:18.178Z,9.10
2019-05-09T06:21:48.472Z,8.60
2019-05-09T06:24:17.981Z,8.80
2019-05-09T06:26:47.870Z,8.35
2019-05-09T06:29:17.852Z,8.23
2019-05-09T06:31:48.439Z,8.50
2019-05-09T06:34:18.834Z,8.50
2019-05-09T06:36:48.877Z,9.38
2019-05-09T06:39:18.422Z,8.15
2019-05-09T06:41:48.392Z,8.23
2019-05-09T06:44:25.074Z,8.28
2019-05-09T06:46:58.825Z,8.90
2019-05-09T06:49:31.936Z,8.30
2019-05-09T06:51:59.865Z,9.13
2019-05-09T06:54:28.720Z,8.35
2019-05-09T06:56:58.440Z,8.90
2019-05-09T06:59:28.329Z,8.30
2019-05-09T07:01:59.034Z,8.03
2019-05-09T07:04:41.495Z,8.15
2019-05-09T07:07:24.219Z,8.40
2019-05-09T07:09:54.668Z,8.60
2019-05-09T07:12:23.538Z,8.13
2019-05-09T07:14:52.491Z,8.98
2019-05-09T07:17:21.334Z,8.40
2019-05-09T07:19:50.244Z,9.28
2019-05-09T07:22:28.019Z,8.63
2019-05-09T07:25:11.356Z,8.73
2019-05-09T07:27:41.970Z,8.33
2019-05-09T07:30:29.564Z,8.58
2019-05-09T07:33:18.853Z,8.90
2019-05-09T07:35:47.599Z,8.28
2019-05-09T07:38:18.280Z,8.28
2019-05-09T07:40:47.835Z,8.15
2019-05-09T07:43:17.992Z,9.68
2019-05-09T07:46:08.747Z,8.28
2019-05-09T07:48:38.586Z,8.45
2019-05-09T07:51:08.007Z,8.63
2019-05-09T07:53:38.006Z,8.58
2019-05-09T07:56:07.981Z,8.53
2019-05-09T07:58:37.743Z,8.48
2019-05-09T08:01:08.499Z,9.43
2019-05-09T08:03:38.417Z,8.20
2019-05-09T08:06:08.801Z,7.87
2019-05-09T08:08:38.562Z,8.53
2019-05-09T08:11:08.860Z,8.33
2019-05-09T08:13:39.253Z,8.48
2019-05-09T08:16:14.136Z,7.78
2019-05-09T08:18:39.596Z,7.92
2019-05-09T08:21:08.665Z,8.40
2019-05-09T08:23:38.142Z,7.15
2019-05-09T08:26:08.810Z,8.10
2019-05-09T08:28:38.968Z,9.28
2019-05-09T08:31:08.555Z,7.78
2019-05-09T08:33:38.287Z,7.45
2019-05-09T08:36:08.657Z,7.67
2019-05-09T08:38:39.167Z,7.70
2019-05-09T08:41:12.157Z,7.03
2019-05-09T08:43:41.495Z,7.87
2019-05-09T08:46:10.738Z,6.55
2019-05-09T08:48:39.619Z,7.35
2019-05-09T08:51:18.033Z,8.48
2019-05-09T08:53:48.172Z,7.83
2019-05-09T08:56:17.811Z,7.37
2019-05-09T08:58:48.519Z,7.10
2019-05-09T09:01:28.817Z,7.10
2019-05-09T09:03:48.499Z,7.00
2019-05-09T09:06:18.336Z,7.55
2019-05-09T09:08:48.334Z,6.97
2019-05-09T09:11:18.720Z,7.60
2019-05-09T09:13:48.371Z,7.12
2019-05-09T09:16:21.668Z,6.85
2019-05-09T09:18:48.276Z,7.83
2019-05-09T09:21:18.290Z,7.30
2019-05-09T09:23:50.672Z,7.42
2019-05-09T09:26:18.454Z,7.22
2019-05-09T09:28:48.480Z,7.55
2019-05-09T09:31:18.097Z,7.58
2019-05-09T09:33:48.037Z,7.05
2019-05-09T09:36:17.841Z,7.60
2019-05-09T09:38:48.050Z,7.50
2019-05-09T09:41:18.221Z,6.83
2019-05-09T09:43:47.763Z,6.90
2019-05-09T09:46:18.189Z,7.42
2019-05-09T09:48:48.031Z,7.12
2019-05-09T09:51:18.582Z,7.45
2019-05-09T09:53:48.971Z,7.43
2019-05-09T09:56:22.117Z,6.45
2019-05-09T09:58:50.125Z,7.17
2019-05-09T10:01:23.103Z,7.67
2019-05-09T10:03:53.564Z,7.50
2019-05-09T10:06:22.406Z,7.97
2019-05-09T10:08:51.353Z,7.50
2019-05-09T10:11:20.225Z,7.67
2019-05-09T10:13:51.862Z,7.75
2019-05-09T10:16:33.188Z,7.50
2019-05-09T10:19:08.307Z,7.78
2019-05-09T10:21:38.541Z,9.05
2019-05-09T10:24:07.951Z,7.58
2019-05-09T10:26:39.086Z,7.83
2019-05-09T10:29:08.119Z,8.15
2019-05-09T10:31:39.239Z,7.37
2019-05-09T10:34:10.706Z,7.80
2019-05-09T10:36:38.555Z,8.10
2019-05-09T10:39:08.322Z,8.40
2019-05-09T10:41:37.676Z,7.80
2019-05-09T10:44:11.167Z,8.23
2019-05-09T10:46:56.456Z,8.50
2019-05-09T10:49:18.173Z,8.00
2019-05-09T10:51:48.547Z,8.53
2019-05-09T10:54:18.545Z,8.40
2019-05-09T10:56:48.754Z,8.40
2019-05-09T10:59:18.398Z,8.08
2019-05-09T11:01:49.434Z,8.45
2019-05-09T11:04:18.115Z,8.88
2019-05-09T11:06:47.020Z,8.08
2019-05-09T11:09:18.211Z,8.68
2019-05-09T11:11:48.447Z,7.83
2019-05-09T11:14:32.128Z,7.83
2019-05-09T11:16:54.286Z,8.23
2019-05-09T11:19:18.740Z,8.50
2019-05-09T11:21:47.918Z,8.23
2019-05-09T11:24:18.831Z,9.08
2019-05-09T11:26:48.091Z,8.50
2019-05-09T11:29:18.743Z,8.48
2019-05-09T11:31:47.925Z,8.37
2019-05-09T11:34:18.904Z,8.95
2019-05-09T11:36:49.645Z,7.75
2019-05-09T11:39:35.291Z,8.33
2019-05-09T11:41:48.862Z,8.13
2019-05-09T11:44:18.529Z,8.65
2019-05-09T11:46:47.802Z,9.65
2019-05-09T11:49:18.033Z,7.87
2019-05-09T11:51:48.234Z,7.78
2019-05-09T11:54:19.455Z,7.75
2019-05-09T11:56:48.255Z,7.67
2019-05-09T11:59:18.932Z,6.97
2019-05-09T12:01:48.338Z,6.87
2019-05-09T12:04:18.691Z,6.85
2019-05-09T12:06:49.307Z,7.03
2019-05-09T12:09:18.542Z,6.35
2019-05-09T12:11:48.248Z,6.53
2019-05-09T12:14:17.468Z,6.12
2019-05-09T12:16:48.020Z,5.92
2019-05-09T12:19:17.956Z,6.08
2019-05-09T12:21:48.295Z,6.40
2019-05-09T12:24:18.401Z,5.90
2019-05-09T12:26:48.166Z,5.75
2019-05-09T12:29:19.658Z,5.08
2019-05-09T12:31:48.500Z,5.00
2019-05-09T12:34:19.283Z,4.87
2019-05-09T12:36:49.282Z,4.97
2019-05-09T12:39:19.039Z,4.50
2019-05-09T12:41:48.502Z,4.20
2019-05-09T12:44:18.420Z,4.65
2019-05-09T12:46:48.814Z,4.58
2019-05-09T12:49:18.974Z,4.72
2019-05-09T12:51:48.188Z,4.25
2019-05-09T12:54:18.990Z,4.70
2019-05-09T12:56:48.538Z,4.80
2019-05-09T12:59:18.797Z,5.03
2019-05-09T13:01:49.192Z,4.80
2019-05-09T13:04:18.487Z,4.95
2019-05-09T13:06:48.897Z,4.80
2019-05-09T13:09:18.101Z,5.23
2019-05-09T13:11:48.235Z,4.90
2019-05-09T13:14:19.401Z,4.72
2019-05-09T13:16:57.335Z,4.35
2019-05-09T13:19:27.871Z,4.42
2019-05-09T13:21:58.785Z,4.58
2019-05-09T13:24:28.364Z,4.67
2019-05-09T13:26:57.304Z,4.30
2019-05-09T13:29:26.163Z,4.65
2019-05-09T13:31:57.564Z,4.70
2019-05-09T13:34:28.199Z,4.45
2019-05-09T13:36:58.838Z,4.35
2019-05-09T13:39:27.993Z,4.15
2019-05-09T13:41:58.361Z,4.17
2019-05-09T13:44:27.847Z,4.95
2019-05-09T13:46:58.384Z,4.55
2019-05-09T13:49:28.576Z,5.07
2019-05-09T13:52:04.219Z,4.70
2019-05-09T13:54:28.525Z,4.42
2019-05-09T13:57:01.022Z,4.30
2019-05-09T13:59:30.004Z,5.10
2019-05-09T14:01:58.844Z,4.50
2019-05-09T14:04:28.585Z,4.90
2019-05-09T14:06:57.847Z,4.58
2019-05-09T14:09:29.165Z,4.30
2019-05-09T14:11:59.022Z,3.90
2019-05-09T14:14:28.188Z,4.22
2019-05-09T14:16:59.205Z,4.55
2019-05-09T14:19:39.621Z,3.83
2019-05-09T14:21:58.785Z,4.10
2019-05-09T14:24:28.092Z,3.87
2019-05-09T14:26:58.211Z,4.70
2019-05-09T14:29:31.517Z,4.28
2019-05-09T14:31:57.989Z,4.25
2019-05-09T14:34:26.909Z,3.70
2019-05-09T14:36:58.450Z,3.60
2019-05-09T14:39:27.699Z,3.85
2019-05-09T14:41:57.867Z,4.12
2019-05-09T14:44:27.695Z,3.75
2019-05-09T14:46:58.387Z,3.72
2019-05-09T14:49:39.642Z,3.30
2019-05-09T14:51:58.100Z,3.47
2019-05-09T14:54:28.987Z,3.70
2019-05-09T14:56:58.355Z,3.27
2019-05-09T14:59:28.644Z,3.22
2019-05-09T15:01:59.105Z,3.83
2019-05-09T15:04:28.259Z,5.35
2019-05-09T15:06:57.785Z,3.22
2019-05-09T15:09:28.412Z,3.22
2019-05-09T15:11:58.442Z,3.37
2019-05-09T15:14:28.924Z,3.22
2019-05-09T15:16:57.932Z,2.87
2019-05-09T15:19:28.784Z,2.98
2019-05-09T15:22:00.428Z,2.87
2019-05-09T15:24:28.844Z,2.67
2019-05-09T15:26:58.177Z,3.20
2019-05-09T15:29:28.964Z,3.00
2019-05-09T15:32:04.697Z,2.90
2019-05-09T15:34:28.663Z,3.00
2019-05-09T15:36:58.328Z,2.60
2019-05-09T15:39:27.901Z,2.87
2019-05-09T15:41:57.946Z,3.40
2019-05-09T15:44:27.021Z,2.70
2019-05-09T15:46:57.501Z,3.22
2019-05-09T15:49:28.505Z,2.60
2019-05-09T15:51:58.481Z,3.73
2019-05-09T15:54:29.426Z,2.92
2019-05-09T15:56:58.197Z,3.00
2019-05-09T15:59:28.142Z,3.12
2019-05-09T16:01:58.349Z,2.90
2019-05-09T16:04:28.057Z,3.27
2019-05-09T16:06:57.325Z,2.95
2019-05-09T16:09:28.423Z,3.05
2019-05-09T16:11:56.901Z,3.35
2019-05-09T16:14:27.683Z,3.52
2019-05-09T16:16:56.484Z,3.70
2019-05-09T16:19:25.326Z,3.85
2019-05-09T16:21:54.289Z,3.05
2019-05-09T16:24:23.130Z,3.72
2019-05-09T16:26:52.049Z,3.92
2019-05-09T16:29:20.955Z,4.25
2019-05-09T16:31:49.862Z,3.75
2019-05-09T16:34:18.776Z,3.52
2019-05-09T16:36:48.184Z,4.30
2019-05-09T16:39:18.039Z,3.80
2019-05-09T16:41:48.359Z,4.15
2019-05-09T16:44:18.367Z,4.12
2019-05-09T16:46:48.473Z,4.00
2019-05-09T16:49:19.868Z,3.98
2019-05-09T16:51:48.731Z,3.75
2019-05-09T16:54:18.251Z,3.85
2019-05-09T16:56:47.248Z,3.92
2019-05-09T16:59:17.911Z,3.60
2019-05-09T17:01:50.087Z,4.05
2019-05-09T17:04:19.087Z,4.28
2019-05-09T17:06:49.707Z,3.83
2019-05-09T17:09:19.312Z,4.33
2019-05-09T17:11:48.261Z,4.30
2019-05-09T17:14:19.282Z,4.17
2019-05-09T17:16:48.333Z,4.12
2019-05-09T17:19:19.520Z,4.20
2019-05-09T17:21:58.363Z,4.78
2019-05-09T17:24:29.582Z,3.92
2019-05-09T17:26:57.993Z,4.75
2019-05-09T17:29:28.041Z,4.35
2019-05-09T17:31:58.459Z,4.35
2019-05-09T17:34:28.687Z,5.00
2019-05-09T17:36:57.784Z,4.58
2019-05-09T17:39:27.799Z,4.53
2019-05-09T17:41:58.236Z,4.42
2019-05-09T17:44:28.097Z,4.40
2019-05-09T17:46:58.002Z,4.60
2019-05-09T17:49:28.096Z,4.92
2019-05-09T17:51:58.390Z,4.75
2019-05-09T17:54:28.895Z,4.80
2019-05-09T17:56:58.014Z,4.30
2019-05-09T17:59:29.203Z,5.20
2019-05-09T18:01:58.126Z,5.23
2019-05-09T18:04:28.750Z,5.15
2019-05-09T18:06:58.461Z,5.83
2019-05-09T18:09:28.576Z,5.08
2019-05-09T18:11:57.930Z,5.85
2019-05-09T18:14:27.905Z,5.45
2019-05-09T18:16:58.210Z,6.25
2019-05-09T18:19:29.295Z,6.22
2019-05-09T18:21:58.289Z,6.25
2019-05-09T18:24:28.778Z,7.03
2019-05-09T18:26:58.343Z,7.28
2019-05-09T18:29:27.958Z,6.87
2019-05-09T18:31:58.536Z,6.90
2019-05-09T18:34:28.649Z,7.45
2019-05-09T18:36:58.757Z,7.03
2019-05-09T18:39:28.063Z,7.33
2019-05-09T18:41:57.758Z,8.35
2019-05-09T18:44:27.576Z,7.70
2019-05-09T18:46:57.713Z,7.62
2019-05-09T18:49:26.804Z,8.30
2019-05-09T18:52:03.627Z,8.45
2019-05-09T18:54:26.877Z,8.60
2019-05-09T18:56:55.888Z,8.75
2019-05-09T18:59:24.983Z,7.90
2019-05-09T19:01:53.987Z,8.95
2019-05-09T19:04:22.884Z,7.83
2019-05-09T19:06:51.855Z,9.05
2019-05-09T19:09:20.786Z,9.43
2019-05-09T19:11:49.836Z,9.00
2019-05-09T19:14:20.474Z,9.88
2019-05-09T19:16:54.082Z,9.05
2019-05-09T19:19:24.593Z,9.80
2019-05-09T19:22:04.973Z,10.82
2019-05-09T19:24:31.618Z,10.72
2019-05-09T19:27:00.539Z,9.60
2019-05-09T19:29:29.486Z,11.60
2019-05-09T19:31:58.420Z,10.53
2019-05-09T19:34:27.412Z,10.75
2019-05-09T19:36:56.292Z,10.50
2019-05-09T19:39:25.216Z,10.25
2019-05-09T19:41:54.227Z,10.48
2019-05-09T19:44:23.195Z,11.45
2019-05-09T19:46:52.086Z,12.10
2019-05-09T19:49:21.071Z,11.78
2019-05-09T19:51:49.985Z,11.83
2019-05-09T19:54:18.927Z,12.13
2019-05-09T19:56:47.860Z,11.45
2019-05-09T19:59:16.825Z,12.78
2019-05-09T20:01:46.715Z,12.10
2019-05-09T20:04:15.768Z,11.90
2019-05-09T20:06:44.625Z,12.33
2019-05-09T20:09:15.107Z,12.98
2019-05-09T20:11:51.315Z,12.03
2019-05-09T20:14:24.227Z,11.60
2019-05-09T20:16:55.848Z,10.58
2019-05-09T20:19:24.945Z,10.75
2019-05-09T20:21:53.849Z,12.40
2019-05-09T20:24:22.821Z,12.82
2019-05-09T20:26:51.729Z,12.43
2019-05-09T20:29:20.660Z,12.25
2019-05-09T20:31:49.703Z,13.68
2019-05-09T20:34:18.777Z,13.53
2019-05-09T20:36:47.919Z,13.35
2019-05-09T20:39:17.166Z,13.88
2019-05-09T20:41:46.311Z,12.85
2019-05-09T20:44:15.358Z,14.03
2019-05-09T20:46:44.483Z,14.15
2019-05-09T20:49:13.613Z,12.73
2019-05-09T20:51:43.047Z,14.05
2019-05-09T20:54:20.462Z,14.10
2019-05-09T20:56:42.994Z,13.55
2019-05-09T20:59:12.098Z,13.03
2019-05-09T21:01:41.255Z,12.60
2019-05-09T21:04:10.355Z,12.85
2019-05-09T21:06:39.503Z,12.28
2019-05-09T21:09:08.678Z,12.18
2019-05-09T21:11:37.764Z,14.07
2019-05-09T21:14:06.914Z,13.80
2019-05-09T21:16:35.999Z,11.35
2019-05-09T21:19:05.296Z,12.60
2019-05-09T21:21:34.383Z,13.08
2019-05-09T21:24:03.472Z,11.55
2019-05-09T21:26:32.765Z,13.05
2019-05-09T21:29:01.903Z,15.13
2019-05-09T21:31:30.934Z,14.65
2019-05-09T21:34:00.050Z,12.98
2019-05-09T21:36:29.361Z,10.58
2019-05-09T21:38:58.384Z,13.08
2019-05-09T21:41:27.372Z,11.80
2019-05-09T21:43:56.346Z,12.70
2019-05-09T21:46:25.342Z,11.45
2019-05-09T21:48:54.239Z,11.90
2019-05-09T21:51:23.253Z,12.37
2019-05-09T21:53:52.417Z,10.10
2019-05-09T21:56:21.272Z,13.28
2019-05-09T21:58:52.094Z,12.40
2019-05-09T22:01:25.994Z,14.38
2019-05-09T22:04:08.108Z,13.75
2019-05-09T22:06:37.057Z,13.55
2019-05-09T22:09:09.601Z,14.50
2019-05-09T22:11:38.870Z,16.37
2019-05-09T22:14:33.530Z,15.45
2019-05-09T22:17:19.926Z,14.05
2019-05-09T22:20:06.833Z,15.15
2019-05-09T22:22:35.944Z,14.05
2019-05-09T22:25:09.222Z,14.65
2019-05-09T22:27:38.080Z,13.90
2019-05-09T22:30:10.607Z,15.15
2019-05-09T22:32:39.508Z,13.80
2019-05-09T22:35:09.187Z,13.38
2019-05-09T22:37:38.243Z,14.80
2019-05-09T22:40:10.919Z,13.93
2019-05-09T22:42:39.849Z,14.83
2019-05-09T22:45:10.504Z,13.13
2019-05-09T22:47:39.356Z,13.62
2019-05-09T22:50:08.499Z,14.00
2019-05-09T22:52:37.437Z,15.88
2019-05-09T22:55:06.931Z,14.43
2019-05-09T22:57:35.814Z,15.75
2019-05-09T23:00:06.390Z,16.05
2019-05-09T23:02:35.265Z,16.12
2019-05-09T23:05:04.550Z,15.85
2019-05-09T23:07:33.495Z,14.98
2019-05-09T23:10:02.413Z,15.48
2019-05-09T23:12:31.357Z,15.08
2019-05-09T23:15:00.247Z,15.28
2019-05-09T23:17:29.182Z,15.78
2019-05-09T23:19:58.143Z,16.12
2019-05-09T23:22:28.566Z,15.43
2019-05-09T23:24:57.496Z,15.13
2019-05-09T23:27:26.409Z,15.18
2019-05-09T23:29:55.302Z,13.18
2019-05-09T23:32:28.207Z,15.58
2019-05-09T23:34:57.138Z,14.53
2019-05-09T23:37:26.057Z,15.30
2019-05-09T23:39:56.739Z,15.63
2019-05-09T23:42:27.324Z,16.85
2019-05-09T23:44:56.220Z,16.90
2019-05-09T23:47:25.239Z,15.25
2019-05-09T23:49:54.083Z,17.07
2019-05-09T23:52:24.823Z,17.42
2019-05-09T23:55:11.855Z,16.57
2019-05-09T23:57:58.619Z,16.00
